sensor_id;sensor_type;location;lat;lon;timestamp;temperature;humidity
75387;DHT22;63966;47.914;22.266;2022-11-21T00:00:55;-0.34;96.24
75387;DHT22;63966;47.914;22.266;2022-11-21T00:03:59;-0.41;95.88
75387;DHT22;63966;47.914;22.266;2022-11-21T00:07:02;-0.64;95.67
75387;DHT22;63966;47.914;22.266;2022-11-21T00:10:06;-0.85;95.53
75387;DHT22;63966;47.914;22.266;2022-11-21T00:13:18;-0.94;95.56
75387;DHT22;63966;47.914;22.266;2022-11-21T00:16:21;-0.92;95.76
75387;DHT22;63966;47.914;22.266;2022-11-21T00:19:25;-0.84;96.03
75387;DHT22;63966;47.914;22.266;2022-11-21T00:22:29;-0.74;96.32
75387;DHT22;63966;47.914;22.266;2022-11-21T00:25:33;-0.57;96.50
75387;DHT22;63966;47.914;22.266;2022-11-21T00:28:37;-0.54;96.58
75387;DHT22;63966;47.914;22.266;2022-11-21T00:31:41;-0.46;96.70
75387;DHT22;63966;47.914;22.266;2022-11-21T00:34:44;-0.41;96.79
75387;DHT22;63966;47.914;22.266;2022-11-21T00:37:48;-0.47;96.86
75387;DHT22;63966;47.914;22.266;2022-11-21T00:40:52;-0.43;96.94
75387;DHT22;63966;47.914;22.266;2022-11-21T00:43:56;-0.46;96.89
75387;DHT22;63966;47.914;22.266;2022-11-21T00:46:59;-0.41;96.79
75387;DHT22;63966;47.914;22.266;2022-11-21T00:50:03;-0.43;96.59
75387;DHT22;63966;47.914;22.266;2022-11-21T00:53:07;-0.47;96.25
75387;DHT22;63966;47.914;22.266;2022-11-21T00:56:10;-0.43;96.12
75387;DHT22;63966;47.914;22.266;2022-11-21T00:59:14;-0.50;96.02
75387;DHT22;63966;47.914;22.266;2022-11-21T01:02:17;-0.60;95.85
75387;DHT22;63966;47.914;22.266;2022-11-21T01:05:20;-0.64;95.90
75387;DHT22;63966;47.914;22.266;2022-11-21T01:08:24;-0.56;95.97
75387;DHT22;63966;47.914;22.266;2022-11-21T01:11:27;-0.44;95.95
75387;DHT22;63966;47.914;22.266;2022-11-21T01:14:31;-0.33;95.89
75387;DHT22;63966;47.914;22.266;2022-11-21T01:17:35;-0.26;95.83
75387;DHT22;63966;47.914;22.266;2022-11-21T01:20:39;-0.16;95.73
75387;DHT22;63966;47.914;22.266;2022-11-21T01:23:43;-0.13;95.72
75387;DHT22;63966;47.914;22.266;2022-11-21T01:26:46;-0.05;95.90
75387;DHT22;63966;47.914;22.266;2022-11-21T01:29:53;0.01;96.04
75387;DHT22;63966;47.914;22.266;2022-11-21T01:32:56;-0.02;96.39
75387;DHT22;63966;47.914;22.266;2022-11-21T01:39:22;0.01;96.95
75387;DHT22;63966;47.914;22.266;2022-11-21T01:42:26;0.01;97.37
75387;DHT22;63966;47.914;22.266;2022-11-21T01:45:59;0.06;97.53
75387;DHT22;63966;47.914;22.266;2022-11-21T01:55:20;0.03;97.59
75387;DHT22;63966;47.914;22.266;2022-11-21T01:58:24;0.13;97.56
75387;DHT22;63966;47.914;22.266;2022-11-21T02:01:29;0.18;97.56
75387;DHT22;63966;47.914;22.266;2022-11-21T02:04:33;0.19;97.61
75387;DHT22;63966;47.914;22.266;2022-11-21T02:07:40;0.16;97.46
75387;DHT22;63966;47.914;22.266;2022-11-21T02:10:53;0.18;97.39
75387;DHT22;63966;47.914;22.266;2022-11-21T02:13:59;0.30;97.51
75387;DHT22;63966;47.914;22.266;2022-11-21T02:17:05;0.26;97.52
75387;DHT22;63966;47.914;22.266;2022-11-21T02:20:13;0.29;97.45
75387;DHT22;63966;47.914;22.266;2022-11-21T02:23:39;0.38;97.45
75387;DHT22;63966;47.914;22.266;2022-11-21T02:26:45;0.35;97.46
75387;DHT22;63966;47.914;22.266;2022-11-21T02:29:49;0.46;97.37
75387;DHT22;63966;47.914;22.266;2022-11-21T02:32:53;0.53;97.33
75387;DHT22;63966;47.914;22.266;2022-11-21T02:35:59;0.50;97.35
75387;DHT22;63966;47.914;22.266;2022-11-21T02:39:04;0.52;97.22
75387;DHT22;63966;47.914;22.266;2022-11-21T02:42:11;0.56;97.20
75387;DHT22;63966;47.914;22.266;2022-11-21T02:45:26;0.53;97.13
75387;DHT22;63966;47.914;22.266;2022-11-21T02:48:31;0.59;97.04
75387;DHT22;63966;47.914;22.266;2022-11-21T02:51:34;0.60;96.96
75387;DHT22;63966;47.914;22.266;2022-11-21T02:54:37;0.61;96.79
75387;DHT22;63966;47.914;22.266;2022-11-21T02:57:41;0.60;96.83
75387;DHT22;63966;47.914;22.266;2022-11-21T03:00:45;0.61;96.68
75387;DHT22;63966;47.914;22.266;2022-11-21T03:03:49;0.63;96.88
75387;DHT22;63966;47.914;22.266;2022-11-21T03:06:52;0.61;96.92
75387;DHT22;63966;47.914;22.266;2022-11-21T03:09:56;0.70;97.04
75387;DHT22;63966;47.914;22.266;2022-11-21T03:12:59;0.76;97.01
75387;DHT22;63966;47.914;22.266;2022-11-21T03:16:03;0.80;96.84
75387;DHT22;63966;47.914;22.266;2022-11-21T03:19:07;0.90;96.67
75387;DHT22;63966;47.914;22.266;2022-11-21T03:22:12;0.91;96.48
75387;DHT22;63966;47.914;22.266;2022-11-21T03:25:16;0.87;96.56
75387;DHT22;63966;47.914;22.266;2022-11-21T03:28:19;0.81;96.52
75387;DHT22;63966;47.914;22.266;2022-11-21T03:31:23;0.78;96.42
75387;DHT22;63966;47.914;22.266;2022-11-21T03:34:27;0.78;96.60
75387;DHT22;63966;47.914;22.266;2022-11-21T03:37:30;0.83;96.63
75387;DHT22;63966;47.914;22.266;2022-11-21T03:40:34;0.77;96.55
75387;DHT22;63966;47.914;22.266;2022-11-21T03:43:37;0.78;96.53
75387;DHT22;63966;47.914;22.266;2022-11-21T03:46:43;0.80;96.63
75387;DHT22;63966;47.914;22.266;2022-11-21T03:49:47;0.83;96.61
75387;DHT22;63966;47.914;22.266;2022-11-21T03:52:50;0.83;96.66
75387;DHT22;63966;47.914;22.266;2022-11-21T03:55:53;0.85;96.51
75387;DHT22;63966;47.914;22.266;2022-11-21T03:58:57;0.87;96.68
75387;DHT22;63966;47.914;22.266;2022-11-21T04:02:00;0.77;96.91
75387;DHT22;63966;47.914;22.266;2022-11-21T04:05:04;0.81;96.90
75387;DHT22;63966;47.914;22.266;2022-11-21T04:08:07;0.88;96.89
75387;DHT22;63966;47.914;22.266;2022-11-21T04:11:11;0.87;96.81
75387;DHT22;63966;47.914;22.266;2022-11-21T04:14:15;0.88;96.94
75387;DHT22;63966;47.914;22.266;2022-11-21T04:17:19;0.94;96.71
75387;DHT22;63966;47.914;22.266;2022-11-21T04:20:22;0.94;96.66
75387;DHT22;63966;47.914;22.266;2022-11-21T04:23:28;0.91;96.74
75387;DHT22;63966;47.914;22.266;2022-11-21T04:26:31;0.90;96.79
75387;DHT22;63966;47.914;22.266;2022-11-21T04:29:35;0.91;96.91
75387;DHT22;63966;47.914;22.266;2022-11-21T04:32:38;0.88;96.92
75387;DHT22;63966;47.914;22.266;2022-11-21T04:35:45;0.88;97.15
75387;DHT22;63966;47.914;22.266;2022-11-21T04:38:49;0.85;97.31
75387;DHT22;63966;47.914;22.266;2022-11-21T04:41:52;0.91;97.36
75387;DHT22;63966;47.914;22.266;2022-11-21T04:44:56;0.90;97.50
75387;DHT22;63966;47.914;22.266;2022-11-21T04:47:59;0.98;97.61
75387;DHT22;63966;47.914;22.266;2022-11-21T04:51:02;1.04;97.54
75387;DHT22;63966;47.914;22.266;2022-11-21T04:54:06;1.09;97.52
75387;DHT22;63966;47.914;22.266;2022-11-21T04:57:09;1.21;97.44
75387;DHT22;63966;47.914;22.266;2022-11-21T05:00:14;1.19;97.53
75387;DHT22;63966;47.914;22.266;2022-11-21T05:03:26;1.17;97.65
75387;DHT22;63966;47.914;22.266;2022-11-21T05:06:29;1.21;97.60
75387;DHT22;63966;47.914;22.266;2022-11-21T05:09:33;1.28;97.67
75387;DHT22;63966;47.914;22.266;2022-11-21T05:12:37;1.18;97.75
75387;DHT22;63966;47.914;22.266;2022-11-21T05:15:59;1.21;97.89
75387;DHT22;63966;47.914;22.266;2022-11-21T05:19:02;1.14;98.03
75387;DHT22;63966;47.914;22.266;2022-11-21T05:22:05;1.11;98.29
75387;DHT22;63966;47.914;22.266;2022-11-21T05:25:09;1.17;98.26
75387;DHT22;63966;47.914;22.266;2022-11-21T05:28:12;1.22;98.33
75387;DHT22;63966;47.914;22.266;2022-11-21T05:31:16;1.18;98.25
75387;DHT22;63966;47.914;22.266;2022-11-21T05:34:19;1.24;98.21
75387;DHT22;63966;47.914;22.266;2022-11-21T05:37:23;1.26;97.97
75387;DHT22;63966;47.914;22.266;2022-11-21T05:40:26;1.31;98.15
75387;DHT22;63966;47.914;22.266;2022-11-21T05:43:29;1.34;97.74
75387;DHT22;63966;47.914;22.266;2022-11-21T05:46:48;1.32;97.82
75387;DHT22;63966;47.914;22.266;2022-11-21T05:49:51;1.35;97.71
75387;DHT22;63966;47.914;22.266;2022-11-21T05:52:55;1.36;97.75
75387;DHT22;63966;47.914;22.266;2022-11-21T05:56:07;1.46;97.75
75387;DHT22;63966;47.914;22.266;2022-11-21T05:59:11;1.49;97.52
75387;DHT22;63966;47.914;22.266;2022-11-21T06:02:15;1.47;97.72
75387;DHT22;63966;47.914;22.266;2022-11-21T06:05:37;1.55;97.58
75387;DHT22;63966;47.914;22.266;2022-11-21T06:08:43;1.55;97.68
75387;DHT22;63966;47.914;22.266;2022-11-21T06:11:46;1.53;97.71
75387;DHT22;63966;47.914;22.266;2022-11-21T06:14:50;1.60;97.66
75387;DHT22;63966;47.914;22.266;2022-11-21T06:17:53;1.63;97.51
75387;DHT22;63966;47.914;22.266;2022-11-21T06:21:05;1.60;97.48
75387;DHT22;63966;47.914;22.266;2022-11-21T06:24:09;1.55;97.58
75387;DHT22;63966;47.914;22.266;2022-11-21T06:27:14;1.56;97.63
75387;DHT22;63966;47.914;22.266;2022-11-21T06:30:17;1.57;97.70
75387;DHT22;63966;47.914;22.266;2022-11-21T06:33:24;1.60;97.40
75387;DHT22;63966;47.914;22.266;2022-11-21T06:36:28;1.63;97.57
75387;DHT22;63966;47.914;22.266;2022-11-21T06:39:31;1.63;97.21
75387;DHT22;63966;47.914;22.266;2022-11-21T06:42:34;1.60;97.25
75387;DHT22;63966;47.914;22.266;2022-11-21T06:45:38;1.64;97.32
75387;DHT22;63966;47.914;22.266;2022-11-21T06:48:42;1.64;97.24
75387;DHT22;63966;47.914;22.266;2022-11-21T06:51:46;1.66;97.30
75387;DHT22;63966;47.914;22.266;2022-11-21T06:54:49;1.70;96.78
75387;DHT22;63966;47.914;22.266;2022-11-21T06:57:55;1.68;96.48
75387;DHT22;63966;47.914;22.266;2022-11-21T07:01:07;1.64;96.45
75387;DHT22;63966;47.914;22.266;2022-11-21T07:04:11;1.57;96.64
75387;DHT22;63966;47.914;22.266;2022-11-21T07:07:14;1.62;96.35
75387;DHT22;63966;47.914;22.266;2022-11-21T07:10:18;1.59;96.61
75387;DHT22;63966;47.914;22.266;2022-11-21T07:13:21;1.70;96.23
75387;DHT22;63966;47.914;22.266;2022-11-21T07:16:25;1.67;96.08
75387;DHT22;63966;47.914;22.266;2022-11-21T07:19:33;1.71;95.78
75387;DHT22;63966;47.914;22.266;2022-11-21T07:22:43;1.77;95.63
75387;DHT22;63966;47.914;22.266;2022-11-21T07:25:46;1.70;95.61
75387;DHT22;63966;47.914;22.266;2022-11-21T07:28:50;1.80;95.78
75387;DHT22;63966;47.914;22.266;2022-11-21T07:31:54;1.86;95.19
75387;DHT22;63966;47.914;22.266;2022-11-21T07:34:58;1.67;94.87
75387;DHT22;63966;47.914;22.266;2022-11-21T07:38:02;1.77;95.13
75387;DHT22;63966;47.914;22.266;2022-11-21T07:41:06;1.88;95.36
75387;DHT22;63966;47.914;22.266;2022-11-21T07:44:09;1.91;94.66
75387;DHT22;63966;47.914;22.266;2022-11-21T07:47:13;1.86;94.78
75387;DHT22;63966;47.914;22.266;2022-11-21T07:50:17;1.88;94.27
75387;DHT22;63966;47.914;22.266;2022-11-21T07:53:20;1.70;94.36
75387;DHT22;63966;47.914;22.266;2022-11-21T07:56:23;1.80;94.43
75387;DHT22;63966;47.914;22.266;2022-11-21T07:59:28;1.71;94.08
75387;DHT22;63966;47.914;22.266;2022-11-21T08:02:32;1.80;94.34
75387;DHT22;63966;47.914;22.266;2022-11-21T08:05:39;1.94;94.36
75387;DHT22;63966;47.914;22.266;2022-11-21T08:08:50;2.11;94.11
75387;DHT22;63966;47.914;22.266;2022-11-21T08:11:56;2.24;94.13
75387;DHT22;63966;47.914;22.266;2022-11-21T08:15:00;2.18;93.82
75387;DHT22;63966;47.914;22.266;2022-11-21T08:18:14;2.13;93.96
75387;DHT22;63966;47.914;22.266;2022-11-21T08:21:18;2.20;93.96
75387;DHT22;63966;47.914;22.266;2022-11-21T08:24:22;2.20;93.34
75387;DHT22;63966;47.914;22.266;2022-11-21T08:27:26;2.08;93.39
75387;DHT22;63966;47.914;22.266;2022-11-21T08:30:30;2.04;93.66
75387;DHT22;63966;47.914;22.266;2022-11-21T08:33:34;1.90;93.56
75387;DHT22;63966;47.914;22.266;2022-11-21T08:36:37;1.81;94.23
75387;DHT22;63966;47.914;22.266;2022-11-21T08:39:41;1.74;94.05
75387;DHT22;63966;47.914;22.266;2022-11-21T08:42:44;1.71;93.76
75387;DHT22;63966;47.914;22.266;2022-11-21T08:45:48;1.68;94.09
75387;DHT22;63966;47.914;22.266;2022-11-21T08:48:53;1.62;94.16
75387;DHT22;63966;47.914;22.266;2022-11-21T08:51:57;1.67;93.87
75387;DHT22;63966;47.914;22.266;2022-11-21T08:55:00;1.64;93.89
75387;DHT22;63966;47.914;22.266;2022-11-21T08:58:04;1.73;93.51
75387;DHT22;63966;47.914;22.266;2022-11-21T09:01:07;1.91;93.44
75387;DHT22;63966;47.914;22.266;2022-11-21T09:04:11;2.14;93.03
75387;DHT22;63966;47.914;22.266;2022-11-21T09:07:14;2.28;92.22
75387;DHT22;63966;47.914;22.266;2022-11-21T09:10:18;2.28;91.36
75387;DHT22;63966;47.914;22.266;2022-11-21T09:13:21;2.46;90.68
75387;DHT22;63966;47.914;22.266;2022-11-21T09:16:24;2.48;90.37
75387;DHT22;63966;47.914;22.266;2022-11-21T09:19:46;2.59;90.27
75387;DHT22;63966;47.914;22.266;2022-11-21T09:22:51;2.64;90.82
75387;DHT22;63966;47.914;22.266;2022-11-21T09:25:54;2.73;90.90
75387;DHT22;63966;47.914;22.266;2022-11-21T09:28:58;2.82;90.97
75387;DHT22;63966;47.914;22.266;2022-11-21T09:32:01;2.96;90.18
75387;DHT22;63966;47.914;22.266;2022-11-21T09:35:05;3.03;89.21
75387;DHT22;63966;47.914;22.266;2022-11-21T09:38:08;3.03;88.80
75387;DHT22;63966;47.914;22.266;2022-11-21T09:48:25;3.03;88.41
75387;DHT22;63966;47.914;22.266;2022-11-21T09:51:30;3.08;88.32
75387;DHT22;63966;47.914;22.266;2022-11-21T09:54:34;3.15;88.63
75387;DHT22;63966;47.914;22.266;2022-11-21T09:57:43;3.21;88.97
75387;DHT22;63966;47.914;22.266;2022-11-21T10:00:52;3.54;87.73
75387;DHT22;63966;47.914;22.266;2022-11-21T10:03:56;3.76;87.34
75387;DHT22;63966;47.914;22.266;2022-11-21T10:07:21;3.73;87.37
75387;DHT22;63966;47.914;22.266;2022-11-21T10:27:26;3.86;86.37
75387;DHT22;63966;47.914;22.266;2022-11-21T10:30:31;3.77;87.46
75387;DHT22;63966;47.914;22.266;2022-11-21T10:33:35;3.98;87.29
75387;DHT22;63966;47.914;22.266;2022-11-21T10:36:46;3.96;86.64
75387;DHT22;63966;47.914;22.266;2022-11-21T10:39:50;4.14;86.19
75387;DHT22;63966;47.914;22.266;2022-11-21T10:43:02;4.28;85.92
75387;DHT22;63966;47.914;22.266;2022-11-21T10:46:28;4.34;85.87
75387;DHT22;63966;47.914;22.266;2022-11-21T10:49:33;4.27;86.37
75387;DHT22;63966;47.914;22.266;2022-11-21T10:56:42;4.35;85.07
75387;DHT22;63966;47.914;22.266;2022-11-21T11:03:18;4.51;86.10
75387;DHT22;63966;47.914;22.266;2022-11-21T11:06:29;4.61;85.57
75387;DHT22;63966;47.914;22.266;2022-11-21T11:09:33;4.46;84.04
75387;DHT22;63966;47.914;22.266;2022-11-21T11:12:37;4.44;84.99
75387;DHT22;63966;47.914;22.266;2022-11-21T11:19:22;4.34;85.46
75387;DHT22;63966;47.914;22.266;2022-11-21T11:22:40;4.20;85.38
75387;DHT22;63966;47.914;22.266;2022-11-21T11:25:52;4.17;85.51
75387;DHT22;63966;47.914;22.266;2022-11-21T11:29:24;4.34;85.98
75387;DHT22;63966;47.914;22.266;2022-11-21T11:32:28;4.35;84.53
75387;DHT22;63966;47.914;22.266;2022-11-21T11:35:33;4.46;85.08
75387;DHT22;63966;47.914;22.266;2022-11-21T11:38:40;4.62;84.37
75387;DHT22;63966;47.914;22.266;2022-11-21T11:48:36;4.77;84.54
75387;DHT22;63966;47.914;22.266;2022-11-21T11:52:03;4.96;84.69
75387;DHT22;63966;47.914;22.266;2022-11-21T11:55:16;5.06;83.38
75387;DHT22;63966;47.914;22.266;2022-11-21T11:58:56;5.19;83.39
75387;DHT22;63966;47.914;22.266;2022-11-21T12:02:20;5.28;83.31
75387;DHT22;63966;47.914;22.266;2022-11-21T12:05:27;5.33;82.09
75387;DHT22;63966;47.914;22.266;2022-11-21T12:08:42;5.17;82.74
75387;DHT22;63966;47.914;22.266;2022-11-21T12:12:10;5.24;83.23
75387;DHT22;63966;47.914;22.266;2022-11-21T12:15:22;5.23;83.99
75387;DHT22;63966;47.914;22.266;2022-11-21T12:21:57;5.27;84.00
75387;DHT22;63966;47.914;22.266;2022-11-21T12:25:00;5.28;83.69
75387;DHT22;63966;47.914;22.266;2022-11-21T12:28:19;5.28;83.71
75387;DHT22;63966;47.914;22.266;2022-11-21T12:41:36;5.06;84.33
75387;DHT22;63966;47.914;22.266;2022-11-21T12:52:22;4.97;85.88
75387;DHT22;63966;47.914;22.266;2022-11-21T12:55:46;4.94;86.12
75387;DHT22;63966;47.914;22.266;2022-11-21T12:58:52;4.79;86.70
75387;DHT22;63966;47.914;22.266;2022-11-21T13:05:00;4.83;86.81
75387;DHT22;63966;47.914;22.266;2022-11-21T13:08:21;4.89;86.23
75387;DHT22;63966;47.914;22.266;2022-11-21T13:18:43;4.77;86.73
75387;DHT22;63966;47.914;22.266;2022-11-21T13:21:50;4.75;87.10
75387;DHT22;63966;47.914;22.266;2022-11-21T13:24:56;4.77;86.86
75387;DHT22;63966;47.914;22.266;2022-11-21T13:31:32;4.77;86.65
75387;DHT22;63966;47.914;22.266;2022-11-21T13:34:37;4.80;86.92
75387;DHT22;63966;47.914;22.266;2022-11-21T13:38:03;4.68;87.01
75387;DHT22;63966;47.914;22.266;2022-11-21T13:41:07;4.59;87.52
75387;DHT22;63966;47.914;22.266;2022-11-21T13:47:52;4.59;87.71
75387;DHT22;63966;47.914;22.266;2022-11-21T13:54:58;4.66;87.35
75387;DHT22;63966;47.914;22.266;2022-11-21T14:01:16;4.64;87.88
75387;DHT22;63966;47.914;22.266;2022-11-21T14:07:41;4.77;87.51
75387;DHT22;63966;47.914;22.266;2022-11-21T14:10:46;4.76;87.52
75387;DHT22;63966;47.914;22.266;2022-11-21T14:13:51;4.73;87.45
75387;DHT22;63966;47.914;22.266;2022-11-21T14:20:28;4.61;88.07
75387;DHT22;63966;47.914;22.266;2022-11-21T14:23:33;4.56;88.16
75387;DHT22;63966;47.914;22.266;2022-11-21T14:26:44;4.44;88.52
75387;DHT22;63966;47.914;22.266;2022-11-21T14:29:49;4.45;88.63
75387;DHT22;63966;47.914;22.266;2022-11-21T14:32:52;4.42;88.54
75387;DHT22;63966;47.914;22.266;2022-11-21T14:36:19;4.34;88.78
75387;DHT22;63966;47.914;22.266;2022-11-21T14:39:26;4.18;89.34
75387;DHT22;63966;47.914;22.266;2022-11-21T14:42:47;4.00;89.79
75387;DHT22;63966;47.914;22.266;2022-11-21T14:45:50;3.90;90.14
75387;DHT22;63966;47.914;22.266;2022-11-21T14:48:54;3.83;90.31
75387;DHT22;63966;47.914;22.266;2022-11-21T14:55:17;3.52;91.22
75387;DHT22;63966;47.914;22.266;2022-11-21T14:58:40;3.41;91.69
75387;DHT22;63966;47.914;22.266;2022-11-21T15:02:10;3.34;91.91
75387;DHT22;63966;47.914;22.266;2022-11-21T15:05:15;3.25;91.84
75387;DHT22;63966;47.914;22.266;2022-11-21T15:08:38;3.17;92.04
75387;DHT22;63966;47.914;22.266;2022-11-21T15:12:07;3.10;92.60
75387;DHT22;63966;47.914;22.266;2022-11-21T15:18:32;2.94;92.65
75387;DHT22;63966;47.914;22.266;2022-11-21T15:21:35;2.87;92.63
75387;DHT22;63966;47.914;22.266;2022-11-21T15:24:41;2.79;93.04
75387;DHT22;63966;47.914;22.266;2022-11-21T15:28:06;2.75;93.17
75387;DHT22;63966;47.914;22.266;2022-11-21T15:34:25;2.77;93.46
75387;DHT22;63966;47.914;22.266;2022-11-21T15:37:47;2.80;93.42
75387;DHT22;63966;47.914;22.266;2022-11-21T15:44:14;2.91;93.11
75387;DHT22;63966;47.914;22.266;2022-11-21T15:47:21;2.97;93.01
75387;DHT22;63966;47.914;22.266;2022-11-21T15:50:24;3.07;92.79
75387;DHT22;63966;47.914;22.266;2022-11-21T15:53:28;3.10;92.62
75387;DHT22;63966;47.914;22.266;2022-11-21T15:56:32;3.08;92.62
75387;DHT22;63966;47.914;22.266;2022-11-21T15:59:36;3.17;92.24
75387;DHT22;63966;47.914;22.266;2022-11-21T16:02:39;3.22;91.98
75387;DHT22;63966;47.914;22.266;2022-11-21T16:05:42;3.11;92.22
75387;DHT22;63966;47.914;22.266;2022-11-21T16:08:46;3.08;92.35
75387;DHT22;63966;47.914;22.266;2022-11-21T16:11:49;3.04;92.37
75387;DHT22;63966;47.914;22.266;2022-11-21T16:14:53;3.00;92.39
75387;DHT22;63966;47.914;22.266;2022-11-21T16:17:56;3.07;92.57
75387;DHT22;63966;47.914;22.266;2022-11-21T16:21:07;3.24;92.36
75387;DHT22;63966;47.914;22.266;2022-11-21T16:24:11;3.32;92.10
75387;DHT22;63966;47.914;22.266;2022-11-21T16:27:14;3.46;91.66
75387;DHT22;63966;47.914;22.266;2022-11-21T16:30:18;3.51;91.24
75387;DHT22;63966;47.914;22.266;2022-11-21T16:33:22;3.55;91.00
75387;DHT22;63966;47.914;22.266;2022-11-21T16:36:30;3.60;90.85
75387;DHT22;63966;47.914;22.266;2022-11-21T16:39:34;3.63;90.74
75387;DHT22;63966;47.914;22.266;2022-11-21T16:42:38;3.66;90.75
75387;DHT22;63966;47.914;22.266;2022-11-21T16:45:41;3.68;90.69
75387;DHT22;63966;47.914;22.266;2022-11-21T16:48:45;3.73;90.48
75387;DHT22;63966;47.914;22.266;2022-11-21T16:51:48;3.66;90.57
75387;DHT22;63966;47.914;22.266;2022-11-21T16:54:52;3.68;90.54
75387;DHT22;63966;47.914;22.266;2022-11-21T16:57:56;3.66;90.43
75387;DHT22;63966;47.914;22.266;2022-11-21T17:01:12;3.63;90.18
75387;DHT22;63966;47.914;22.266;2022-11-21T17:04:16;3.51;90.51
75387;DHT22;63966;47.914;22.266;2022-11-21T17:07:20;3.45;90.83
75387;DHT22;63966;47.914;22.266;2022-11-21T17:10:26;3.48;90.81
75387;DHT22;63966;47.914;22.266;2022-11-21T17:13:36;3.49;90.97
75387;DHT22;63966;47.914;22.266;2022-11-21T17:16:39;3.52;90.92
75387;DHT22;63966;47.914;22.266;2022-11-21T17:19:44;3.65;90.75
75387;DHT22;63966;47.914;22.266;2022-11-21T17:22:47;3.68;90.60
75387;DHT22;63966;47.914;22.266;2022-11-21T17:25:51;3.66;90.58
75387;DHT22;63966;47.914;22.266;2022-11-21T17:28:57;3.54;91.17
75387;DHT22;63966;47.914;22.266;2022-11-21T17:32:01;3.51;91.12
75387;DHT22;63966;47.914;22.266;2022-11-21T17:35:05;3.49;91.37
75387;DHT22;63966;47.914;22.266;2022-11-21T17:38:09;3.48;91.50
75387;DHT22;63966;47.914;22.266;2022-11-21T17:41:15;3.49;91.49
75387;DHT22;63966;47.914;22.266;2022-11-21T17:44:19;3.51;91.41
75387;DHT22;63966;47.914;22.266;2022-11-21T17:47:23;3.54;91.16
75387;DHT22;63966;47.914;22.266;2022-11-21T17:50:26;3.46;91.70
75387;DHT22;63966;47.914;22.266;2022-11-21T17:53:34;3.35;92.22
75387;DHT22;63966;47.914;22.266;2022-11-21T17:56:39;3.41;92.39
75387;DHT22;63966;47.914;22.266;2022-11-21T17:59:49;3.41;92.28
75387;DHT22;63966;47.914;22.266;2022-11-21T18:02:56;3.41;92.34
75387;DHT22;63966;47.914;22.266;2022-11-21T18:06:07;3.39;92.52
75387;DHT22;63966;47.914;22.266;2022-11-21T18:09:12;3.41;92.51
75387;DHT22;63966;47.914;22.266;2022-11-21T18:12:16;3.45;92.28
75387;DHT22;63966;47.914;22.266;2022-11-21T18:15:19;3.39;92.29
75387;DHT22;63966;47.914;22.266;2022-11-21T18:18:23;3.31;92.38
75387;DHT22;63966;47.914;22.266;2022-11-21T18:21:29;3.25;92.72
75387;DHT22;63966;47.914;22.266;2022-11-21T18:24:33;3.18;92.59
75387;DHT22;63966;47.914;22.266;2022-11-21T18:27:36;3.15;93.06
75387;DHT22;63966;47.914;22.266;2022-11-21T18:30:41;3.18;92.97
75387;DHT22;63966;47.914;22.266;2022-11-21T18:33:49;3.28;92.86
75387;DHT22;63966;47.914;22.266;2022-11-21T18:36:53;3.28;92.83
75387;DHT22;63966;47.914;22.266;2022-11-21T18:39:57;3.28;92.91
75387;DHT22;63966;47.914;22.266;2022-11-21T18:43:00;3.31;93.02
75387;DHT22;63966;47.914;22.266;2022-11-21T18:46:11;3.41;92.97
75387;DHT22;63966;47.914;22.266;2022-11-21T18:49:15;3.36;93.16
75387;DHT22;63966;47.914;22.266;2022-11-21T18:52:20;3.49;93.01
75387;DHT22;63966;47.914;22.266;2022-11-21T18:55:25;3.56;92.56
75387;DHT22;63966;47.914;22.266;2022-11-21T18:58:36;3.62;92.49
75387;DHT22;63966;47.914;22.266;2022-11-21T19:01:40;3.70;92.36
75387;DHT22;63966;47.914;22.266;2022-11-21T19:04:44;3.73;92.11
75387;DHT22;63966;47.914;22.266;2022-11-21T19:07:49;3.73;92.30
75387;DHT22;63966;47.914;22.266;2022-11-21T19:10:54;3.75;92.53
75387;DHT22;63966;47.914;22.266;2022-11-21T19:13:58;3.83;92.59
75387;DHT22;63966;47.914;22.266;2022-11-21T19:17:06;3.93;92.56
75387;DHT22;63966;47.914;22.266;2022-11-21T19:20:10;3.85;93.18
75387;DHT22;63966;47.914;22.266;2022-11-21T19:23:13;3.91;93.13
75387;DHT22;63966;47.914;22.266;2022-11-21T19:26:18;3.93;93.25
75387;DHT22;63966;47.914;22.266;2022-11-21T19:29:25;4.00;93.31
75387;DHT22;63966;47.914;22.266;2022-11-21T19:32:30;3.98;93.50
75387;DHT22;63966;47.914;22.266;2022-11-21T19:35:36;4.00;93.72
75387;DHT22;63966;47.914;22.266;2022-11-21T19:38:40;4.10;93.47
75387;DHT22;63966;47.914;22.266;2022-11-21T19:41:49;4.07;93.49
75387;DHT22;63966;47.914;22.266;2022-11-21T19:44:53;4.04;93.58
75387;DHT22;63966;47.914;22.266;2022-11-21T19:47:57;4.03;93.67
75387;DHT22;63966;47.914;22.266;2022-11-21T19:51:02;4.06;93.60
75387;DHT22;63966;47.914;22.266;2022-11-21T19:54:07;4.08;93.40
75387;DHT22;63966;47.914;22.266;2022-11-21T19:57:11;4.11;93.27
75387;DHT22;63966;47.914;22.266;2022-11-21T20:00:16;4.07;93.27
75387;DHT22;63966;47.914;22.266;2022-11-21T20:03:20;4.08;93.24
75387;DHT22;63966;47.914;22.266;2022-11-21T20:06:32;4.06;93.38
75387;DHT22;63966;47.914;22.266;2022-11-21T20:09:36;4.13;93.32
75387;DHT22;63966;47.914;22.266;2022-11-21T20:12:40;4.17;93.00
75387;DHT22;63966;47.914;22.266;2022-11-21T20:15:44;4.14;93.01
75387;DHT22;63966;47.914;22.266;2022-11-21T20:18:48;4.13;93.03
75387;DHT22;63966;47.914;22.266;2022-11-21T20:21:52;4.21;92.58
75387;DHT22;63966;47.914;22.266;2022-11-21T20:24:57;4.13;92.99
75387;DHT22;63966;47.914;22.266;2022-11-21T20:28:00;4.13;92.97
75387;DHT22;63966;47.914;22.266;2022-11-21T20:31:13;4.07;93.13
75387;DHT22;63966;47.914;22.266;2022-11-21T20:34:17;4.06;93.39
75387;DHT22;63966;47.914;22.266;2022-11-21T20:37:21;4.13;93.24
75387;DHT22;63966;47.914;22.266;2022-11-21T20:40:25;4.16;93.02
75387;DHT22;63966;47.914;22.266;2022-11-21T20:43:29;4.08;93.21
75387;DHT22;63966;47.914;22.266;2022-11-21T20:46:52;4.01;93.58
75387;DHT22;63966;47.914;22.266;2022-11-21T20:49:56;4.03;93.50
75387;DHT22;63966;47.914;22.266;2022-11-21T20:53:01;4.06;93.56
75387;DHT22;63966;47.914;22.266;2022-11-21T20:56:24;4.08;93.41
75387;DHT22;63966;47.914;22.266;2022-11-21T20:59:29;4.08;93.20
75387;DHT22;63966;47.914;22.266;2022-11-21T21:02:34;4.01;93.48
75387;DHT22;63966;47.914;22.266;2022-11-21T21:05:37;4.07;93.55
75387;DHT22;63966;47.914;22.266;2022-11-21T21:08:41;4.16;93.13
75387;DHT22;63966;47.914;22.266;2022-11-21T21:11:45;4.21;92.82
75387;DHT22;63966;47.914;22.266;2022-11-21T21:14:56;4.20;92.93
75387;DHT22;63966;47.914;22.266;2022-11-21T21:17:59;4.16;92.85
75387;DHT22;63966;47.914;22.266;2022-11-21T21:21:14;4.04;92.87
75387;DHT22;63966;47.914;22.266;2022-11-21T21:24:19;4.04;93.07
75387;DHT22;63966;47.914;22.266;2022-11-21T21:27:22;4.03;92.93
75387;DHT22;63966;47.914;22.266;2022-11-21T21:30:26;4.01;93.18
75387;DHT22;63966;47.914;22.266;2022-11-21T21:33:29;4.04;93.31